Time;durP1;ratioP1;P1;durP2;ratioP2;P2;SDS_P1;SDS_P2;PMS_P1;PMS_P2;Temp;Humidity;BMP_temperature;BMP_pressure;BME280_temperature;BME280_humidity;BME280_pressure;Samples;Min_cycle;Max_cycle;Signal;HPM_P1;HPM_P2
2023/06/16 00:01:38;;;;;;;9.35;4.22;;;;;;;;;;5014412;28;20533;-72
2023/06/16 00:04:04;;;;;;;6.65;4.13;;;;;;;;;;5015550;28;20065;-72
2023/06/16 00:06:30;;;;;;;7.70;4.07;;;;;;;;;;5015005;28;20458;-72
2023/06/16 00:08:57;;;;;;;7.15;3.72;;;;;;;;;;5015034;28;20484;-72
2023/06/16 00:11:26;;;;;;;7.57;4.13;;;;;;;;;;5013623;28;20156;-72
2023/06/16 00:13:51;;;;;;;6.45;3.80;;;;;;;;;;5010145;28;20080;-72
2023/06/16 00:16:19;;;;;;;6.18;3.97;;;;;;;;;;5012962;28;20049;-72
2023/06/16 00:18:46;;;;;;;7.50;4.00;;;;;;;;;;5014731;28;20041;-72
2023/06/16 00:21:14;;;;;;;6.05;4.30;;;;;;;;;;5014836;28;20030;-72
2023/06/16 00:23:40;;;;;;;7.43;4.30;;;;;;;;;;5014696;28;20044;-72
2023/06/16 00:26:05;;;;;;;9.82;4.45;;;;;;;;;;5008114;28;20473;-72
2023/06/16 00:28:31;;;;;;;7.03;4.00;;;;;;;;;;5013751;28;20084;-72
2023/06/16 00:30:56;;;;;;;6.43;4.10;;;;;;;;;;5011870;28;20034;-72
2023/06/16 00:33:21;;;;;;;9.35;4.25;;;;;;;;;;5014127;28;20042;-72
2023/06/16 00:35:47;;;;;;;11.38;4.40;;;;;;;;;;5014554;28;20470;-72
2023/06/16 00:38:12;;;;;;;7.78;4.18;;;;;;;;;;5013057;28;20030;-72
2023/06/16 00:40:38;;;;;;;5.80;3.92;;;;;;;;;;5004768;28;20037;-72
2023/06/16 00:43:03;;;;;;;10.77;5.00;;;;;;;;;;5012621;28;20042;-72
2023/06/16 00:45:29;;;;;;;9.13;4.22;;;;;;;;;;5008364;28;20045;-72
2023/06/16 00:47:55;;;;;;;6.63;4.32;;;;;;;;;;5012651;28;20049;-72
2023/06/16 00:50:21;;;;;;;8.75;4.05;;;;;;;;;;5014489;28;20037;-72
2023/06/16 00:52:46;;;;;;;9.20;4.25;;;;;;;;;;5013065;28;20504;-72
2023/06/16 00:55:12;;;;;;;7.22;4.30;;;;;;;;;;5012791;28;20045;-72
2023/06/16 00:57:39;;;;;;;12.93;4.85;;;;;;;;;;5012426;28;20057;-72
2023/06/16 01:00:07;;;;;;;6.60;4.40;;;;;;;;;;5012869;28;20470;-72
2023/06/16 01:02:32;;;;;;;8.18;4.20;;;;;;;;;;5013309;28;20042;-72
2023/06/16 01:04:58;;;;;;;6.18;3.70;;;;;;;;;;5013980;28;20040;-72
2023/06/16 01:07:31;;;;;;;6.95;4.10;;;;;;;;;;5013815;28;20041;-72
2023/06/16 01:10:08;;;;;;;7.10;4.38;;;;;;;;;;5012290;28;20044;-72
2023/06/16 01:12:39;;;;;;;5.70;4.00;;;;;;;;;;5012798;28;20044;-72
2023/06/16 01:15:09;;;;;;;5.72;3.83;;;;;;;;;;5013749;28;20120;-72
2023/06/16 01:17:38;;;;;;;7.22;3.90;;;;;;;;;;5012434;28;20038;-72
2023/06/16 01:20:09;;;;;;;6.75;4.07;;;;;;;;;;5011404;28;20437;-72
2023/06/16 01:22:53;;;;;;;5.85;4.13;;;;;;;;;;5013780;28;20069;-72
2023/06/16 01:25:22;;;;;;;6.55;4.50;;;;;;;;;;5007131;28;20041;-72
2023/06/16 01:27:51;;;;;;;7.63;4.20;;;;;;;;;;5012566;28;20072;-72
2023/06/16 01:30:19;;;;;;;8.95;4.50;;;;;;;;;;5012501;28;20029;-72
2023/06/16 01:32:46;;;;;;;13.63;4.43;;;;;;;;;;5012120;28;20490;-72
2023/06/16 01:35:12;;;;;;;7.28;4.03;;;;;;;;;;5011923;28;20041;-72
2023/06/16 01:37:39;;;;;;;6.60;4.22;;;;;;;;;;5011864;28;20034;-72
2023/06/16 01:40:05;;;;;;;7.85;4.15;;;;;;;;;;5012341;28;20089;-72
2023/06/16 01:42:31;;;;;;;8.90;4.57;;;;;;;;;;5011954;28;20041;-72
2023/06/16 01:44:57;;;;;;;7.03;3.88;;;;;;;;;;5013469;28;20034;-72
2023/06/16 01:47:23;;;;;;;10.35;4.53;;;;;;;;;;5011919;28;20429;-72
2023/06/16 01:49:50;;;;;;;7.50;4.32;;;;;;;;;;5012204;28;20112;-72
2023/06/16 01:52:16;;;;;;;6.90;3.83;;;;;;;;;;5012137;28;20034;-72
2023/06/16 01:54:41;;;;;;;11.23;4.53;;;;;;;;;;5012017;28;20045;-72
2023/06/16 01:57:06;;;;;;;6.50;4.05;;;;;;;;;;5013093;28;20057;-72
2023/06/16 01:59:33;;;;;;;7.18;4.22;;;;;;;;;;5013095;28;20033;-71
2023/06/16 02:02:04;;;;;;;7.20;4.25;;;;;;;;;;5011802;28;20034;-72
2023/06/16 02:04:32;;;;;;;6.30;3.72;;;;;;;;;;5012031;28;20076;-72
2023/06/16 02:07:07;;;;;;;6.72;4.10;;;;;;;;;;5012177;28;20022;-72
2023/06/16 02:09:35;;;;;;;7.65;4.30;;;;;;;;;;5011625;28;20129;-72
2023/06/16 02:12:02;;;;;;;8.95;4.40;;;;;;;;;;5011685;28;20061;-73
2023/06/16 02:14:28;;;;;;;6.78;4.38;;;;;;;;;;5013286;28;20517;-72
2023/06/16 02:16:53;;;;;;;8.18;3.83;;;;;;;;;;5012981;28;20065;-72
2023/06/16 02:19:19;;;;;;;8.27;4.50;;;;;;;;;;5013015;28;20076;-72
2023/06/16 02:21:44;;;;;;;6.18;4.05;;;;;;;;;;5013203;28;20037;-72
2023/06/16 02:24:10;;;;;;;10.15;4.15;;;;;;;;;;5016355;28;20042;-72
2023/06/16 02:26:37;;;;;;;6.95;4.07;;;;;;;;;;5016685;28;20040;-72
2023/06/16 02:29:02;;;;;;;5.50;3.53;;;;;;;;;;5015987;28;20021;-72
2023/06/16 02:31:28;;;;;;;7.18;4.07;;;;;;;;;;5015565;28;20034;-72
2023/06/16 02:33:54;;;;;;;5.65;3.55;;;;;;;;;;5016952;28;20458;-72
2023/06/16 02:36:20;;;;;;;6.47;3.22;;;;;;;;;;5016893;28;20033;-72
2023/06/16 02:38:45;;;;;;;11.48;3.83;;;;;;;;;;5016608;28;20117;-72
2023/06/16 02:41:11;;;;;;;8.93;3.85;;;;;;;;;;5014841;28;20088;-72
2023/06/16 02:43:37;;;;;;;6.22;3.92;;;;;;;;;;5015256;28;20030;-72
2023/06/16 02:46:02;;;;;;;5.70;3.78;;;;;;;;;;5015530;28;20056;-72
2023/06/16 02:48:28;;;;;;;5.75;3.72;;;;;;;;;;5016341;28;20037;-72
2023/06/16 02:50:53;;;;;;;7.22;3.55;;;;;;;;;;5016858;28;20076;-72
2023/06/16 02:53:19;;;;;;;6.68;3.72;;;;;;;;;;5016158;28;20619;-72
2023/06/16 02:55:46;;;;;;;7.25;3.58;;;;;;;;;;5015187;28;20034;-72
2023/06/16 02:58:12;;;;;;;6.68;3.40;;;;;;;;;;5016213;28;20045;-72
2023/06/16 03:00:37;;;;;;;9.63;4.32;;;;;;;;;;5016373;28;20536;-72
2023/06/16 03:03:04;;;;;;;11.48;4.20;;;;;;;;;;5015011;28;20049;-72
2023/06/16 03:05:31;;;;;;;9.57;3.60;;;;;;;;;;5016383;28;20084;-72
2023/06/16 03:07:57;;;;;;;7.53;4.28;;;;;;;;;;5009485;28;20041;-72
2023/06/16 03:10:22;;;;;;;6.72;4.20;;;;;;;;;;5015796;28;20038;-72
2023/06/16 03:12:47;;;;;;;7.53;3.63;;;;;;;;;;5016251;28;20038;-72
2023/06/16 03:15:13;;;;;;;6.32;3.92;;;;;;;;;;5015789;28;20042;-72
2023/06/16 03:17:38;;;;;;;6.25;3.97;;;;;;;;;;5015903;28;20041;-72
2023/06/16 03:20:05;;;;;;;5.35;3.55;;;;;;;;;;5016183;28;20113;-72
2023/06/16 03:22:31;;;;;;;4.80;3.22;;;;;;;;;;5015834;28;20053;-72
2023/06/16 03:25:02;;;;;;;7.97;4.03;;;;;;;;;;5015965;28;20034;-72
2023/06/16 03:27:28;;;;;;;7.60;3.92;;;;;;;;;;5015707;28;20036;-72
2023/06/16 03:29:54;;;;;;;5.28;3.30;;;;;;;;;;5014823;28;20048;-72
2023/06/16 03:32:19;;;;;;;5.88;3.65;;;;;;;;;;5015745;28;20034;-72
2023/06/16 03:34:46;;;;;;;14.73;4.57;;;;;;;;;;5014927;28;20022;-72
2023/06/16 03:37:11;;;;;;;6.72;3.63;;;;;;;;;;5014327;28;20036;-72
2023/06/16 03:39:37;;;;;;;8.30;3.60;;;;;;;;;;5015726;28;20034;-72
2023/06/16 03:42:02;;;;;;;7.28;3.58;;;;;;;;;;5014343;28;20030;-72
2023/06/16 03:44:27;;;;;;;7.13;3.63;;;;;;;;;;5015451;28;20070;-72
2023/06/16 03:46:53;;;;;;;8.43;3.92;;;;;;;;;;5014888;28;20478;-72
2023/06/16 03:49:18;;;;;;;7.20;4.05;;;;;;;;;;5015459;28;20026;-72
2023/06/16 03:51:43;;;;;;;5.03;3.83;;;;;;;;;;5015308;28;20504;-72
2023/06/16 03:54:11;;;;;;;9.43;4.40;;;;;;;;;;5014362;28;20045;-72
2023/06/16 03:56:36;;;;;;;7.50;3.78;;;;;;;;;;5008847;28;20065;-72
2023/06/16 03:59:02;;;;;;;5.10;3.67;;;;;;;;;;5014185;28;20069;-72
2023/06/16 04:01:27;;;;;;;6.85;4.15;;;;;;;;;;5015001;28;20033;-72
2023/06/16 04:03:52;;;;;;;12.35;4.32;;;;;;;;;;5015445;28;20025;-72
2023/06/16 04:06:18;;;;;;;8.20;3.60;;;;;;;;;;5014982;28;20046;-72
2023/06/16 04:08:47;;;;;;;6.35;3.40;;;;;;;;;;5013546;28;20045;-72
2023/06/16 04:11:13;;;;;;;4.93;3.33;;;;;;;;;;5014918;28;20033;-72
2023/06/16 04:13:39;;;;;;;7.68;3.83;;;;;;;;;;5012342;28;20445;-72
2023/06/16 04:16:05;;;;;;;6.90;4.10;;;;;;;;;;5010872;28;20038;-72
2023/06/16 04:18:30;;;;;;;10.68;3.55;;;;;;;;;;5014916;28;20077;-72
2023/06/16 04:20:56;;;;;;;10.13;3.83;;;;;;;;;;5015050;28;20092;-72
2023/06/16 04:23:21;;;;;;;6.30;3.63;;;;;;;;;;5014642;28;20076;-72
2023/06/16 04:25:47;;;;;;;6.18;3.78;;;;;;;;;;5013353;28;20109;-72
2023/06/16 04:28:16;;;;;;;5.78;3.42;;;;;;;;;;5014844;28;20034;-72
2023/06/16 04:30:42;;;;;;;7.30;3.47;;;;;;;;;;5014739;28;20041;-72
2023/06/16 04:33:07;;;;;;;7.38;3.92;;;;;;;;;;5013466;28;20462;-72
2023/06/16 04:35:34;;;;;;;7.95;3.67;;;;;;;;;;5013399;28;20076;-72
2023/06/16 04:38:02;;;;;;;7.78;3.72;;;;;;;;;;5014309;28;20033;-72
2023/06/16 04:40:29;;;;;;;9.63;3.65;;;;;;;;;;5004761;28;20749;-72
2023/06/16 04:42:55;;;;;;;5.40;3.38;;;;;;;;;;5014339;28;20042;-72
2023/06/16 04:45:21;;;;;;;5.35;3.67;;;;;;;;;;5012238;28;20508;-72
2023/06/16 04:47:47;;;;;;;5.82;3.78;;;;;;;;;;5012816;28;20493;-72
2023/06/16 04:50:15;;;;;;;7.18;3.35;;;;;;;;;;5012350;28;20108;-72
2023/06/16 04:52:40;;;;;;;6.72;3.90;;;;;;;;;;5013015;28;20033;-72
2023/06/16 04:55:06;;;;;;;5.63;3.20;;;;;;;;;;5013045;28;20038;-72
2023/06/16 04:57:33;;;;;;;4.30;2.83;;;;;;;;;;5012792;28;20057;-72
2023/06/16 04:59:59;;;;;;;4.38;2.95;;;;;;;;;;5012480;28;20140;-72
2023/06/16 05:02:24;;;;;;;8.90;2.90;;;;;;;;;;5011757;28;20168;-72
2023/06/16 05:04:50;;;;;;;5.93;2.88;;;;;;;;;;5010284;28;20113;-72
2023/06/16 05:07:15;;;;;;;5.38;2.85;;;;;;;;;;5013967;28;20037;-72
2023/06/16 05:09:41;;;;;;;5.93;3.00;;;;;;;;;;5010868;28;20038;-72
2023/06/16 05:12:07;;;;;;;4.60;3.13;;;;;;;;;;5014029;28;20041;-72
2023/06/16 05:14:33;;;;;;;6.63;2.80;;;;;;;;;;5012682;28;20033;-72
2023/06/16 05:16:58;;;;;;;5.05;2.80;;;;;;;;;;5013042;28;20092;-72
2023/06/16 05:19:24;;;;;;;4.45;2.47;;;;;;;;;;5012669;28;20042;-72
2023/06/16 05:21:49;;;;;;;4.07;2.42;;;;;;;;;;5013741;28;20096;-72
2023/06/16 05:24:15;;;;;;;3.60;2.47;;;;;;;;;;5013887;28;20096;-72
2023/06/16 05:26:41;;;;;;;4.72;2.70;;;;;;;;;;5013359;28;20053;-72
2023/06/16 05:29:06;;;;;;;4.75;2.42;;;;;;;;;;5013892;28;20076;-72
2023/06/16 05:31:33;;;;;;;5.00;2.70;;;;;;;;;;5012136;28;20417;-72
2023/06/16 05:33:59;;;;;;;5.32;2.42;;;;;;;;;;5012460;28;20099;-72
2023/06/16 05:36:24;;;;;;;3.90;2.35;;;;;;;;;;5009856;28;20034;-72
2023/06/16 05:38:51;;;;;;;4.00;2.22;;;;;;;;;;5012100;28;20041;-72
2023/06/16 05:41:17;;;;;;;4.15;2.30;;;;;;;;;;5013246;28;20044;-72
2023/06/16 05:43:42;;;;;;;4.35;2.47;;;;;;;;;;5010984;28;20037;-72
2023/06/16 05:46:07;;;;;;;5.75;2.22;;;;;;;;;;5012524;28;20079;-72
2023/06/16 05:48:33;;;;;;;3.80;2.08;;;;;;;;;;5013259;28;20132;-72
2023/06/16 05:50:59;;;;;;;3.83;2.35;;;;;;;;;;5013587;28;20041;-72
2023/06/16 05:53:24;;;;;;;4.22;2.15;;;;;;;;;;5013203;28;20053;-72
2023/06/16 05:55:49;;;;;;;4.03;2.45;;;;;;;;;;5013409;28;20466;-72
2023/06/16 05:58:15;;;;;;;4.50;2.42;;;;;;;;;;5013219;28;20116;-72
2023/06/16 06:00:40;;;;;;;5.43;2.28;;;;;;;;;;5013595;28;20520;-73
2023/06/16 06:03:06;;;;;;;3.80;2.33;;;;;;;;;;5013465;28;20034;-72
2023/06/16 06:05:31;;;;;;;3.33;2.35;;;;;;;;;;5012789;28;20034;-72
2023/06/16 06:07:56;;;;;;;5.97;2.47;;;;;;;;;;5013399;28;20534;-72
2023/06/16 06:10:22;;;;;;;4.30;2.40;;;;;;;;;;5012838;28;20049;-72
2023/06/16 06:12:47;;;;;;;3.72;2.22;;;;;;;;;;5012515;28;20088;-72
2023/06/16 06:15:12;;;;;;;3.55;2.35;;;;;;;;;;5013368;28;20033;-72
2023/06/16 06:17:38;;;;;;;3.63;2.30;;;;;;;;;;5013011;28;20042;-72
2023/06/16 06:20:03;;;;;;;3.78;2.33;;;;;;;;;;5013056;28;20037;-72
2023/06/16 06:22:32;;;;;;;4.78;2.38;;;;;;;;;;5013077;28;20038;-72
2023/06/16 06:24:58;;;;;;;6.32;2.55;;;;;;;;;;5013038;28;20038;-72
2023/06/16 06:27:24;;;;;;;3.38;2.05;;;;;;;;;;5013009;28;20036;-72
2023/06/16 06:29:49;;;;;;;4.13;2.45;;;;;;;;;;5012916;28;20038;-72
2023/06/16 06:32:15;;;;;;;3.85;2.33;;;;;;;;;;5012770;28;20046;-72
2023/06/16 06:34:40;;;;;;;3.97;2.20;;;;;;;;;;5012727;28;20034;-72
2023/06/16 06:37:05;;;;;;;5.53;2.80;;;;;;;;;;5012852;28;20104;-72
2023/06/16 06:39:31;;;;;;;3.13;2.20;;;;;;;;;;5012709;28;20050;-72
2023/06/16 06:41:56;;;;;;;5.40;2.25;;;;;;;;;;5018494;28;20033;-72
2023/06/16 06:44:21;;;;;;;3.10;2.30;;;;;;;;;;5012800;28;20044;-72
2023/06/16 06:46:48;;;;;;;3.83;2.30;;;;;;;;;;5012587;28;20048;-72
2023/06/16 06:49:13;;;;;;;3.60;2.47;;;;;;;;;;5011736;28;20045;-72
2023/06/16 06:51:40;;;;;;;3.25;2.28;;;;;;;;;;5010366;28;20538;-72
2023/06/16 06:54:06;;;;;;;4.78;2.40;;;;;;;;;;5013386;28;20026;-72
2023/06/16 06:56:31;;;;;;;5.22;2.22;;;;;;;;;;5011200;28;20606;-72
2023/06/16 06:58:57;;;;;;;3.67;2.50;;;;;;;;;;5011404;28;20548;-73
2023/06/16 07:01:22;;;;;;;5.72;2.70;;;;;;;;;;5012891;28;20042;-72
2023/06/16 07:03:47;;;;;;;6.35;2.58;;;;;;;;;;5012811;28;20081;-72
2023/06/16 07:06:13;;;;;;;4.75;2.65;;;;;;;;;;5011789;28;20557;-72
2023/06/16 07:08:38;;;;;;;6.75;3.00;;;;;;;;;;5010723;28;20474;-73
2023/06/16 07:11:03;;;;;;;7.30;2.72;;;;;;;;;;5012326;28;20037;-72
2023/06/16 07:13:29;;;;;;;6.82;3.38;;;;;;;;;;5006687;28;20497;-72
2023/06/16 07:15:54;;;;;;;4.40;3.10;;;;;;;;;;5013591;28;20474;-72
2023/06/16 07:18:20;;;;;;;8.85;3.55;;;;;;;;;;5014079;28;20069;-72
2023/06/16 07:20:45;;;;;;;6.80;3.50;;;;;;;;;;5013397;28;20409;-72
2023/06/16 07:23:10;;;;;;;11.40;4.43;;;;;;;;;;5013557;28;20470;-72
2023/06/16 07:25:36;;;;;;;4.55;3.60;;;;;;;;;;5013356;28;20029;-72
2023/06/16 07:28:03;;;;;;;4.57;3.40;;;;;;;;;;5012608;28;20044;-73
2023/06/16 07:30:29;;;;;;;6.68;3.28;;;;;;;;;;5012366;28;20034;-73
2023/06/16 07:32:55;;;;;;;10.73;3.20;;;;;;;;;;5013863;28;20029;-72
2023/06/16 07:35:20;;;;;;;7.75;3.70;;;;;;;;;;5013298;28;20045;-73
2023/06/16 07:37:46;;;;;;;6.65;3.20;;;;;;;;;;5013034;28;20036;-73
2023/06/16 07:40:13;;;;;;;7.93;3.85;;;;;;;;;;5013418;28;20109;-73
2023/06/16 07:42:44;;;;;;;4.85;3.28;;;;;;;;;;5013003;28;20054;-73
2023/06/16 07:45:10;;;;;;;7.13;3.40;;;;;;;;;;5013081;28;20493;-73
2023/06/16 07:47:35;;;;;;;7.18;3.40;;;;;;;;;;5011928;28;20117;-73
2023/06/16 07:50:00;;;;;;;11.23;4.18;;;;;;;;;;5007488;28;20046;-73
2023/06/16 07:52:25;;;;;;;8.13;3.30;;;;;;;;;;5010592;28;20045;-73
2023/06/16 07:54:51;;;;;;;5.57;3.47;;;;;;;;;;5014176;28;20030;-73
2023/06/16 07:57:16;;;;;;;6.28;3.17;;;;;;;;;;5010402;28;20034;-73
2023/06/16 07:59:43;;;;;;;8.50;3.53;;;;;;;;;;5013046;28;20466;-73
2023/06/16 08:02:08;;;;;;;6.68;3.33;;;;;;;;;;5011767;28;20121;-73
2023/06/16 08:04:33;;;;;;;8.90;4.43;;;;;;;;;;5013309;28;20168;-72
2023/06/16 08:06:59;;;;;;;6.47;3.20;;;;;;;;;;5011678;28;20117;-72
2023/06/16 08:09:25;;;;;;;6.43;2.97;;;;;;;;;;5014028;28;20069;-73
2023/06/16 08:11:50;;;;;;;4.88;3.25;;;;;;;;;;5012505;28;20112;-73
2023/06/16 08:14:16;;;;;;;13.65;3.40;;;;;;;;;;5014984;28;20077;-72
2023/06/16 08:16:41;;;;;;;5.68;3.80;;;;;;;;;;5015318;28;20104;-72
2023/06/16 08:19:08;;;;;;;5.22;3.17;;;;;;;;;;5015150;28;20029;-73
2023/06/16 08:21:34;;;;;;;10.50;3.28;;;;;;;;;;5014954;28;20038;-72
2023/06/16 08:24:00;;;;;;;6.15;3.22;;;;;;;;;;5013803;28;20030;-73
2023/06/16 08:26:25;;;;;;;7.38;3.15;;;;;;;;;;5014931;28;20481;-72
2023/06/16 08:28:51;;;;;;;6.15;2.85;;;;;;;;;;5013086;28;20478;-73
2023/06/16 08:31:17;;;;;;;10.18;3.22;;;;;;;;;;5013693;28;20029;-72
2023/06/16 08:33:42;;;;;;;6.13;3.15;;;;;;;;;;5014866;28;20040;-72
2023/06/16 08:36:07;;;;;;;7.30;3.33;;;;;;;;;;5014886;28;20041;-72
2023/06/16 08:38:33;;;;;;;6.72;3.03;;;;;;;;;;5011479;28;20109;-72
2023/06/16 08:41:04;;;;;;;10.90;3.22;;;;;;;;;;5014604;28;20021;-72
2023/06/16 08:43:34;;;;;;;7.35;3.05;;;;;;;;;;5013181;28;20490;-72
2023/06/16 08:45:59;;;;;;;5.88;3.05;;;;;;;;;;5014576;28;20029;-72
2023/06/16 08:48:25;;;;;;;4.80;3.10;;;;;;;;;;5013216;28;20038;-72
2023/06/16 08:50:52;;;;;;;6.13;2.95;;;;;;;;;;5011139;28;20551;-72
2023/06/16 08:53:19;;;;;;;5.88;3.38;;;;;;;;;;5013334;28;20037;-72
2023/06/16 08:55:45;;;;;;;7.38;3.22;;;;;;;;;;5013222;28;20065;-73
2023/06/16 08:58:12;;;;;;;6.93;3.42;;;;;;;;;;5014424;28;20088;-72
2023/06/16 09:00:39;;;;;;;7.43;3.10;;;;;;;;;;5012660;28;20499;-73
2023/06/16 09:03:08;;;;;;;7.32;3.13;;;;;;;;;;5013134;28;20042;-73
2023/06/16 09:05:34;;;;;;;4.10;2.80;;;;;;;;;;5013127;28;20045;-72
2023/06/16 09:08:01;;;;;;;4.43;2.80;;;;;;;;;;5014245;28;20065;-72
2023/06/16 09:10:26;;;;;;;6.80;3.30;;;;;;;;;;5013972;28;20034;-72
2023/06/16 09:12:52;;;;;;;7.95;3.33;;;;;;;;;;5013943;28;20038;-72
2023/06/16 09:15:18;;;;;;;6.00;3.28;;;;;;;;;;5013929;28;20123;-73
2023/06/16 09:17:47;;;;;;;4.18;2.80;;;;;;;;;;5014252;28;20466;-72
2023/06/16 09:20:16;;;;;;;6.38;3.10;;;;;;;;;;5012731;28;20091;-73
2023/06/16 09:22:41;;;;;;;8.05;3.30;;;;;;;;;;5014177;28;20113;-73
2023/06/16 09:25:09;;;;;;;5.00;3.08;;;;;;;;;;5013889;28;20042;-72
2023/06/16 09:27:49;;;;;;;4.00;2.80;;;;;;;;;;5012582;28;20037;-72
2023/06/16 09:30:21;;;;;;;8.18;3.20;;;;;;;;;;5012795;28;20046;-73
2023/06/16 09:32:47;;;;;;;4.45;2.95;;;;;;;;;;5003652;28;20386;-72
2023/06/16 09:35:20;;;;;;;6.30;3.15;;;;;;;;;;5013682;28;20038;-72
2023/06/16 09:37:46;;;;;;;5.30;2.97;;;;;;;;;;5013566;28;20474;-72
2023/06/16 09:40:13;;;;;;;6.43;3.00;;;;;;;;;;5011527;28;20044;-72
2023/06/16 09:42:38;;;;;;;7.18;2.95;;;;;;;;;;5013611;28;20034;-72
2023/06/16 09:45:26;;;;;;;4.80;2.88;;;;;;;;;;5012543;28;20030;-72
2023/06/16 09:47:51;;;;;;;4.22;3.00;;;;;;;;;;5007141;28;20405;-70
2023/06/16 09:50:25;;;;;;;6.07;2.70;;;;;;;;;;5013198;28;20041;-70
2023/06/16 09:52:53;;;;;;;6.18;2.78;;;;;;;;;;5008228;28;20038;-70
2023/06/16 09:55:18;;;;;;;7.32;3.20;;;;;;;;;;5013518;28;20042;-70
2023/06/16 09:57:45;;;;;;;7.68;3.00;;;;;;;;;;5012076;28;20120;-69
2023/06/16 10:00:15;;;;;;;4.07;2.70;;;;;;;;;;5013497;28;20045;-70
2023/06/16 10:02:49;;;;;;;3.92;2.78;;;;;;;;;;5013116;28;20052;-70
2023/06/16 10:05:18;;;;;;;5.95;2.97;;;;;;;;;;5013429;28;20049;-70
2023/06/16 10:07:45;;;;;;;6.72;2.70;;;;;;;;;;5012347;28;20049;-70
2023/06/16 10:10:11;;;;;;;5.40;2.63;;;;;;;;;;5012354;28;20120;-70
2023/06/16 10:12:38;;;;;;;5.57;2.90;;;;;;;;;;5013247;28;20029;-70
2023/06/16 10:15:04;;;;;;;3.78;2.10;;;;;;;;;;4995810;28;20069;-70
2023/06/16 10:17:32;;;;;;;5.10;3.15;;;;;;;;;;5010647;28;20046;-70
2023/06/16 10:19:57;;;;;;;3.88;2.90;;;;;;;;;;5010342;28;20371;-69
2023/06/16 10:22:23;;;;;;;7.50;3.38;;;;;;;;;;5009616;28;20073;-72
2023/06/16 10:24:49;;;;;;;8.52;2.70;;;;;;;;;;5011772;28;20042;-72
2023/06/16 10:27:15;;;;;;;8.88;3.08;;;;;;;;;;5012803;28;20509;-72
2023/06/16 10:29:40;;;;;;;4.78;2.60;;;;;;;;;;5003790;28;20068;-72
2023/06/16 10:32:10;;;;;;;8.70;2.70;;;;;;;;;;5012134;28;20122;-72
2023/06/16 10:34:46;;;;;;;7.25;3.00;;;;;;;;;;5012503;28;20080;-72
2023/06/16 10:37:13;;;;;;;3.40;2.67;;;;;;;;;;5006745;28;20054;-72
2023/06/16 10:39:43;;;;;;;4.70;2.40;;;;;;;;;;5012284;28;20030;-72
2023/06/16 10:42:11;;;;;;;9.88;2.92;;;;;;;;;;5013284;28;20108;-72
2023/06/16 10:44:37;;;;;;;4.82;2.20;;;;;;;;;;5013544;28;20042;-72
2023/06/16 10:47:11;;;;;;;3.65;2.65;;;;;;;;;;5015614;28;20034;-72
2023/06/16 10:49:57;;;;;;;7.82;2.75;;;;;;;;;;5010176;28;20394;-72
2023/06/16 10:52:29;;;;;;;7.55;2.92;;;;;;;;;;5005043;28;20049;-72
2023/06/16 10:54:58;;;;;;;6.95;2.60;;;;;;;;;;5014224;28;20096;-72
2023/06/16 10:57:25;;;;;;;5.00;2.63;;;;;;;;;;4996791;28;20042;-72
2023/06/16 10:59:56;;;;;;;5.13;2.47;;;;;;;;;;5014129;28;20466;-72
2023/06/16 11:02:23;;;;;;;6.70;2.75;;;;;;;;;;5013471;28;20041;-72
2023/06/16 11:05:13;;;;;;;5.88;2.35;;;;;;;;;;5013875;28;20125;-72
2023/06/16 11:07:46;;;;;;;7.97;2.75;;;;;;;;;;5014161;28;20038;-72
2023/06/16 11:10:23;;;;;;;5.60;3.03;;;;;;;;;;5014287;28;20705;-72
2023/06/16 11:12:48;;;;;;;5.03;2.30;;;;;;;;;;5013947;28;20042;-72
2023/06/16 11:15:14;;;;;;;3.85;2.53;;;;;;;;;;5016494;28;20045;-72
2023/06/16 11:17:42;;;;;;;6.10;2.78;;;;;;;;;;5016798;28;20118;-72
2023/06/16 11:20:08;;;;;;;4.70;2.33;;;;;;;;;;5020666;28;20461;-72
2023/06/16 11:22:35;;;;;;;7.38;2.60;;;;;;;;;;5018142;28;20559;-72
2023/06/16 11:25:01;;;;;;;6.75;2.85;;;;;;;;;;5016049;28;20117;-72
2023/06/16 11:27:26;;;;;;;3.47;2.17;;;;;;;;;;5017689;28;20553;-72
2023/06/16 11:29:53;;;;;;;4.28;2.60;;;;;;;;;;5014821;28;20057;-72
2023/06/16 11:32:22;;;;;;;3.95;2.65;;;;;;;;;;5018352;28;20029;-72
2023/06/16 11:34:48;;;;;;;6.65;2.70;;;;;;;;;;5015849;28;20486;-72
2023/06/16 11:37:13;;;;;;;6.53;2.88;;;;;;;;;;5017872;28;20038;-72
2023/06/16 11:39:45;;;;;;;6.63;2.53;;;;;;;;;;5025609;28;20104;-72
2023/06/16 11:42:15;;;;;;;4.55;2.55;;;;;;;;;;5012801;28;20042;-72
2023/06/16 11:44:44;;;;;;;6.65;2.55;;;;;;;;;;5015244;28;20443;-72
2023/06/16 11:47:10;;;;;;;8.57;2.70;;;;;;;;;;5014211;28;20474;-72
2023/06/16 11:49:38;;;;;;;9.30;2.70;;;;;;;;;;5009349;28;20046;-72
2023/06/16 11:52:05;;;;;;;3.40;2.28;;;;;;;;;;5009987;28;20064;-71
2023/06/16 11:54:30;;;;;;;3.90;2.40;;;;;;;;;;5001268;28;20061;-72
2023/06/16 11:56:59;;;;;;;5.95;2.65;;;;;;;;;;5010619;28;20065;-72
2023/06/16 11:59:28;;;;;;;7.07;2.60;;;;;;;;;;5010524;28;20080;-71
2023/06/16 12:01:56;;;;;;;8.88;2.72;;;;;;;;;;5008843;28;20030;-72
2023/06/16 12:04:22;;;;;;;4.63;2.50;;;;;;;;;;5008462;28;20050;-72
2023/06/16 12:06:47;;;;;;;9.52;2.85;;;;;;;;;;5008331;28;20449;-72
2023/06/16 12:09:14;;;;;;;4.03;2.60;;;;;;;;;;5009920;28;20051;-72
2023/06/16 12:11:46;;;;;;;5.18;2.53;;;;;;;;;;5034621;28;20061;-72
2023/06/16 12:14:20;;;;;;;4.27;2.50;;;;;;;;;;5002228;28;20478;-72
2023/06/16 12:16:48;;;;;;;5.53;2.35;;;;;;;;;;5005037;28;20341;-72
2023/06/16 12:19:46;;;;;;;4.38;2.50;;;;;;;;;;5006480;28;20041;-72
2023/06/16 12:22:12;;;;;;;5.75;2.28;;;;;;;;;;4997034;28;20045;-72
2023/06/16 12:24:39;;;;;;;5.75;2.20;;;;;;;;;;5004534;28;20406;-72
2023/06/16 12:27:05;;;;;;;4.38;2.47;;;;;;;;;;5008979;28;20537;-71
2023/06/16 12:29:31;;;;;;;3.80;2.20;;;;;;;;;;5013621;28;20122;-72
2023/06/16 12:31:58;;;;;;;5.43;2.60;;;;;;;;;;5014609;28;20101;-72
2023/06/16 12:34:25;;;;;;;7.28;2.55;;;;;;;;;;5014769;28;20466;-72
2023/06/16 12:36:54;;;;;;;6.18;2.67;;;;;;;;;;5014507;28;20041;-72
2023/06/16 12:39:20;;;;;;;5.45;2.53;;;;;;;;;;5013395;28;20029;-72
2023/06/16 12:42:15;;;;;;;5.20;2.70;;;;;;;;;;5013231;28;20390;-72
2023/06/16 12:44:49;;;;;;;12.18;2.72;;;;;;;;;;4986399;28;20142;-72
2023/06/16 12:47:16;;;;;;;7.65;2.78;;;;;;;;;;5010612;28;20056;-72
2023/06/16 12:49:42;;;;;;;4.82;2.35;;;;;;;;;;5008479;28;20061;-72
2023/06/16 12:52:09;;;;;;;6.90;2.65;;;;;;;;;;5002038;28;20038;-72
2023/06/16 12:54:35;;;;;;;4.93;2.70;;;;;;;;;;5009703;28;20026;-72
2023/06/16 12:57:00;;;;;;;4.80;2.17;;;;;;;;;;5011055;28;20044;-71
2023/06/16 12:59:26;;;;;;;4.85;2.40;;;;;;;;;;5010559;28;20053;-71
2023/06/16 13:01:51;;;;;;;3.33;1.95;;;;;;;;;;5010193;28;20177;-72
2023/06/16 13:04:17;;;;;;;5.28;2.55;;;;;;;;;;5010663;28;20481;-72
2023/06/16 13:06:42;;;;;;;9.38;2.75;;;;;;;;;;5007556;28;20113;-72
2023/06/16 13:09:07;;;;;;;4.97;2.63;;;;;;;;;;5008646;28;20109;-72
2023/06/16 13:11:34;;;;;;;4.22;2.35;;;;;;;;;;5002983;28;20076;-72
2023/06/16 13:14:00;;;;;;;10.30;2.65;;;;;;;;;;5010395;28;20030;-71
2023/06/16 13:16:26;;;;;;;5.25;2.72;;;;;;;;;;5009894;28;20482;-72
2023/06/16 13:18:51;;;;;;;6.30;2.53;;;;;;;;;;5010588;28;20092;-72
2023/06/16 13:21:16;;;;;;;6.03;2.45;;;;;;;;;;5010668;28;20025;-72
2023/06/16 13:23:45;;;;;;;6.07;2.60;;;;;;;;;;5010454;28;20038;-72
2023/06/16 13:26:11;;;;;;;6.53;2.80;;;;;;;;;;5009600;28;20050;-71
2023/06/16 13:28:38;;;;;;;4.25;2.70;;;;;;;;;;5010169;28;20110;-72
2023/06/16 13:31:06;;;;;;;6.00;2.70;;;;;;;;;;5009718;28;20501;-72
2023/06/16 13:33:33;;;;;;;4.38;2.50;;;;;;;;;;5009957;28;20061;-71
2023/06/16 13:35:59;;;;;;;9.70;2.47;;;;;;;;;;5006345;28;20025;-72
2023/06/16 13:38:24;;;;;;;4.82;2.55;;;;;;;;;;5008222;28;20540;-72
2023/06/16 13:40:49;;;;;;;3.97;2.35;;;;;;;;;;5009949;28;20052;-72
2023/06/16 13:43:15;;;;;;;4.35;2.42;;;;;;;;;;5009219;28;20029;-72
2023/06/16 13:45:40;;;;;;;4.57;2.58;;;;;;;;;;5009399;28;20054;-71
2023/06/16 13:48:05;;;;;;;4.25;2.25;;;;;;;;;;5009725;28;21382;-71
2023/06/16 13:50:31;;;;;;;8.02;2.75;;;;;;;;;;5010269;28;20442;-71
2023/06/16 13:52:56;;;;;;;5.18;2.70;;;;;;;;;;5010100;28;20034;-72
2023/06/16 13:55:21;;;;;;;6.97;2.50;;;;;;;;;;5008890;28;20042;-71
2023/06/16 13:57:47;;;;;;;4.20;2.58;;;;;;;;;;5009028;28;20129;-72
2023/06/16 14:00:13;;;;;;;8.45;2.70;;;;;;;;;;5009532;28;20097;-72
2023/06/16 14:02:38;;;;;;;4.22;2.40;;;;;;;;;;5010041;28;20099;-72
2023/06/16 14:05:04;;;;;;;12.73;2.90;;;;;;;;;;5010273;28;20438;-71
2023/06/16 14:07:32;;;;;;;3.92;2.30;;;;;;;;;;5005194;28;20038;-72
2023/06/16 14:09:57;;;;;;;7.38;2.53;;;;;;;;;;5007802;28;20034;-71
2023/06/16 14:12:23;;;;;;;7.18;2.80;;;;;;;;;;5006587;28;20631;-72
2023/06/16 14:14:49;;;;;;;4.57;2.53;;;;;;;;;;5009962;28;20033;-71
2023/06/16 14:17:15;;;;;;;5.20;2.40;;;;;;;;;;5010304;28;20038;-71
2023/06/16 14:19:40;;;;;;;5.07;2.40;;;;;;;;;;5013886;28;20044;-72
2023/06/16 14:22:05;;;;;;;5.38;2.50;;;;;;;;;;5013223;28;20481;-72
2023/06/16 14:24:30;;;;;;;4.85;2.60;;;;;;;;;;5013676;28;20482;-71
2023/06/16 14:26:56;;;;;;;3.63;2.40;;;;;;;;;;5013051;28;20569;-72
2023/06/16 14:29:21;;;;;;;4.07;2.38;;;;;;;;;;5013958;28;20390;-72
2023/06/16 14:31:46;;;;;;;5.18;2.90;;;;;;;;;;5013171;28;20478;-72
2023/06/16 14:34:12;;;;;;;5.38;2.45;;;;;;;;;;5013397;28;20030;-71
2023/06/16 14:36:37;;;;;;;5.30;2.25;;;;;;;;;;5013094;28;20363;-72
2023/06/16 14:39:02;;;;;;;4.10;2.53;;;;;;;;;;5012858;28;20161;-72
2023/06/16 14:41:28;;;;;;;7.63;2.67;;;;;;;;;;5013624;28;20049;-72